sensor_id;sensor_type;location;lat;lon;timestamp;pressure;altitude;pressure_sealevel;temperature;humidity
45939;BME280;31650;48.818;9.116;2023-07-31T00:12:49;98010.78;;;15.00;98.52
45939;BME280;31650;48.818;9.116;2023-07-31T00:27:50;98005.59;;;14.70;100.00
45939;BME280;31650;48.818;9.116;2023-07-31T00:42:50;98020.34;;;14.28;100.00
45939;BME280;31650;48.818;9.116;2023-07-31T00:57:50;98017.44;;;14.06;100.00
45939;BME280;31650;48.818;9.116;2023-07-31T01:12:51;98021.81;;;13.55;100.00
45939;BME280;31650;48.818;9.116;2023-07-31T01:27:58;98002.50;;;13.97;100.00
45939;BME280;31650;48.818;9.116;2023-07-31T01:43:00;97971.59;;;14.66;100.00
45939;BME280;31650;48.818;9.116;2023-07-31T01:58:00;97952.69;;;14.81;100.00
45939;BME280;31650;48.818;9.116;2023-07-31T02:13:00;97942.03;;;14.97;100.00
45939;BME280;31650;48.818;9.116;2023-07-31T02:28:01;97920.28;;;14.73;100.00
45939;BME280;31650;48.818;9.116;2023-07-31T02:43:01;97917.13;;;14.36;100.00
45939;BME280;31650;48.818;9.116;2023-07-31T02:58:03;97904.44;;;14.58;100.00
45939;BME280;31650;48.818;9.116;2023-07-31T03:13:03;97914.59;;;14.46;100.00
45939;BME280;31650;48.818;9.116;2023-07-31T03:28:04;97899.63;;;14.82;98.93
45939;BME280;31650;48.818;9.116;2023-07-31T03:43:04;97908.75;;;14.71;97.07
45939;BME280;31650;48.818;9.116;2023-07-31T03:58:05;97901.88;;;14.85;95.68
45939;BME280;31650;48.818;9.116;2023-07-31T04:13:05;97903.34;;;15.10;95.44
45939;BME280;31650;48.818;9.116;2023-07-31T04:28:07;97891.19;;;15.40;91.14
45939;BME280;31650;48.818;9.116;2023-07-31T04:43:08;97900.34;;;15.50;92.09
45939;BME280;31650;48.818;9.116;2023-07-31T04:58:08;97880.34;;;15.94;86.91
45939;BME280;31650;48.818;9.116;2023-07-31T05:13:08;97875.50;;;16.01;86.19
45939;BME280;31650;48.818;9.116;2023-07-31T05:28:09;97874.94;;;16.26;83.50
45939;BME280;31650;48.818;9.116;2023-07-31T05:43:09;97868.25;;;16.76;78.57
45939;BME280;31650;48.818;9.116;2023-07-31T05:58:09;97861.78;;;17.35;77.07
45939;BME280;31650;48.818;9.116;2023-07-31T06:13:10;97869.09;;;17.72;74.44
45939;BME280;31650;48.818;9.116;2023-07-31T06:28:10;97865.19;;;18.62;70.46
45939;BME280;31650;48.818;9.116;2023-07-31T06:43:10;97857.47;;;18.74;69.48
45939;BME280;31650;48.818;9.116;2023-07-31T06:58:11;97864.28;;;19.33;66.27
45939;BME280;31650;48.818;9.116;2023-07-31T07:13:12;97859.53;;;20.19;63.88
45939;BME280;31650;48.818;9.116;2023-07-31T07:28:13;97849.31;;;20.64;60.88
45939;BME280;31650;48.818;9.116;2023-07-31T07:43:14;97836.94;;;20.56;61.54
45939;BME280;31650;48.818;9.116;2023-07-31T07:58:14;97829.09;;;21.75;57.29
45939;BME280;31650;48.818;9.116;2023-07-31T08:13:14;97823.59;;;21.94;58.15
45939;BME280;31650;48.818;9.116;2023-07-31T08:28:15;97803.06;;;23.59;52.89
45939;BME280;31650;48.818;9.116;2023-07-31T08:43:15;97794.75;;;24.23;51.86
45939;BME280;31650;48.818;9.116;2023-07-31T08:58:15;97797.09;;;23.66;51.56
45939;BME280;31650;48.818;9.116;2023-07-31T09:13:17;97782.38;;;22.49;54.11
45939;BME280;31650;48.818;9.116;2023-07-31T09:28:17;97778.38;;;22.23;56.10
45939;BME280;31650;48.818;9.116;2023-07-31T09:43:19;97760.44;;;23.13;53.09
45939;BME280;31650;48.818;9.116;2023-07-31T09:58:20;97721.69;;;24.67;49.42
45939;BME280;31650;48.818;9.116;2023-07-31T10:13:20;97713.22;;;25.53;46.93
45939;BME280;31650;48.818;9.116;2023-07-31T10:28:22;97697.00;;;25.46;46.96
45939;BME280;31650;48.818;9.116;2023-07-31T10:43:23;97692.56;;;25.54;47.51
45939;BME280;31650;48.818;9.116;2023-07-31T10:58:24;97670.84;;;26.90;45.58
45939;BME280;31650;48.818;9.116;2023-07-31T11:13:25;97666.16;;;27.03;43.35
45939;BME280;31650;48.818;9.116;2023-07-31T11:28:25;97652.13;;;26.34;44.66
45939;BME280;31650;48.818;9.116;2023-07-31T11:43:25;97655.94;;;25.03;48.28
45939;BME280;31650;48.818;9.116;2023-07-31T11:58:27;97637.03;;;24.74;49.39
45939;BME280;31650;48.818;9.116;2023-07-31T12:13:28;97615.63;;;24.74;50.72
45939;BME280;31650;48.818;9.116;2023-07-31T12:28:30;97601.06;;;25.61;50.50
45939;BME280;31650;48.818;9.116;2023-07-31T12:43:34;97585.03;;;24.74;48.80
45939;BME280;31650;48.818;9.116;2023-07-31T12:58:35;97570.00;;;24.04;50.11
45939;BME280;31650;48.818;9.116;2023-07-31T13:13:35;97564.03;;;24.19;50.06
45939;BME280;31650;48.818;9.116;2023-07-31T13:28:35;97539.53;;;24.21;49.94
45939;BME280;31650;48.818;9.116;2023-07-31T13:43:36;97530.78;;;24.94;48.67
45939;BME280;31650;48.818;9.116;2023-07-31T13:58:36;97498.94;;;25.09;48.46
45939;BME280;31650;48.818;9.116;2023-07-31T14:13:36;97498.03;;;25.96;47.40
45939;BME280;31650;48.818;9.116;2023-07-31T14:28:37;97488.88;;;25.78;48.31
45939;BME280;31650;48.818;9.116;2023-07-31T14:43:37;97455.63;;;26.28;47.24
45939;BME280;31650;48.818;9.116;2023-07-31T14:58:38;97467.31;;;25.57;48.58
45939;BME280;31650;48.818;9.116;2023-07-31T15:13:38;97452.78;;;25.34;48.00
45939;BME280;31650;48.818;9.116;2023-07-31T15:28:39;97425.28;;;25.15;47.74
45939;BME280;31650;48.818;9.116;2023-07-31T15:43:39;97399.13;;;25.07;47.44
45939;BME280;31650;48.818;9.116;2023-07-31T15:58:39;97364.13;;;24.98;49.73
45939;BME280;31650;48.818;9.116;2023-07-31T16:13:39;97382.47;;;24.73;49.48
45939;BME280;31650;48.818;9.116;2023-07-31T16:28:40;97377.97;;;24.19;52.12
45939;BME280;31650;48.818;9.116;2023-07-31T16:43:40;97381.06;;;23.69;52.85
45939;BME280;31650;48.818;9.116;2023-07-31T16:58:41;97380.91;;;22.89;55.06
45939;BME280;31650;48.818;9.116;2023-07-31T17:13:41;97364.59;;;22.29;57.60
45939;BME280;31650;48.818;9.116;2023-07-31T17:28:42;97360.41;;;21.90;58.04
45939;BME280;31650;48.818;9.116;2023-07-31T17:43:42;97347.84;;;21.56;59.62
45939;BME280;31650;48.818;9.116;2023-07-31T17:58:43;97340.25;;;21.48;61.61
45939;BME280;31650;48.818;9.116;2023-07-31T18:13:45;97336.56;;;21.06;67.01
45939;BME280;31650;48.818;9.116;2023-07-31T18:28:48;97311.22;;;20.52;73.56
45939;BME280;31650;48.818;9.116;2023-07-31T18:43:49;97320.72;;;20.27;76.99
45939;BME280;31650;48.818;9.116;2023-07-31T18:58:49;97394.66;;;19.05;100.00
45939;BME280;31650;48.818;9.116;2023-07-31T19:13:51;97456.34;;;18.15;100.00
45939;BME280;31650;48.818;9.116;2023-07-31T19:28:51;97482.59;;;17.71;100.00
45939;BME280;31650;48.818;9.116;2023-07-31T19:43:52;97497.47;;;17.39;100.00
45939;BME280;31650;48.818;9.116;2023-07-31T19:58:52;97483.75;;;17.14;100.00
45939;BME280;31650;48.818;9.116;2023-07-31T20:13:52;97461.22;;;16.91;100.00
45939;BME280;31650;48.818;9.116;2023-07-31T20:28:53;97433.47;;;16.82;100.00
45939;BME280;31650;48.818;9.116;2023-07-31T20:43:53;97405.72;;;16.69;100.00
45939;BME280;31650;48.818;9.116;2023-07-31T20:58:53;97383.75;;;16.53;100.00
45939;BME280;31650;48.818;9.116;2023-07-31T21:13:53;97364.84;;;16.67;100.00
45939;BME280;31650;48.818;9.116;2023-07-31T21:28:54;97323.69;;;16.67;100.00
45939;BME280;31650;48.818;9.116;2023-07-31T21:43:54;97281.41;;;16.73;100.00
45939;BME280;31650;48.818;9.116;2023-07-31T21:58:55;97241.63;;;16.86;100.00
45939;BME280;31650;48.818;9.116;2023-07-31T22:13:55;97182.53;;;16.99;100.00
45939;BME280;31650;48.818;9.116;2023-07-31T22:28:55;97146.78;;;17.14;100.00
45939;BME280;31650;48.818;9.116;2023-07-31T22:43:55;97116.53;;;17.19;100.00
45939;BME280;31650;48.818;9.116;2023-07-31T22:58:56;97084.38;;;17.25;100.00
45939;BME280;31650;48.818;9.116;2023-07-31T23:13:56;97085.78;;;17.22;100.00
45939;BME280;31650;48.818;9.116;2023-07-31T23:28:59;97105.88;;;17.13;100.00
45939;BME280;31650;48.818;9.116;2023-07-31T23:44:00;97096.41;;;16.85;100.00
45939;BME280;31650;48.818;9.116;2023-07-31T23:59:01;97092.34;;;16.72;100.00
